createdAt,value
2018-09-09T01:19:33.855Z,15.20
2018-09-09T01:21:36.058Z,15.20
2018-09-09T01:23:38.381Z,15.20
2018-09-09T01:25:40.585Z,15.20
2018-09-09T01:27:42.672Z,15.20
2018-09-09T01:29:44.758Z,15.20
2018-09-09T01:31:46.881Z,15.20
2018-09-09T01:33:48.997Z,15.20
2018-09-09T01:35:51.058Z,15.20
2018-09-09T01:37:53.122Z,15.10
2018-09-09T01:39:55.156Z,15.10
2018-09-09T01:41:57.200Z,15.10
2018-09-09T01:43:59.275Z,15.10
2018-09-09T01:46:01.346Z,15.10
2018-09-09T01:48:03.565Z,15.20
2018-09-09T01:50:05.718Z,15.20
2018-09-09T01:52:07.816Z,15.10
2018-09-09T01:54:09.885Z,15.10
2018-09-09T01:56:12.029Z,15.10
2018-09-09T01:58:14.070Z,15.10
2018-09-09T02:00:16.138Z,15.20
2018-09-09T02:02:18.190Z,15.20
2018-09-09T02:04:20.237Z,15.10
2018-09-09T02:06:22.313Z,15.10
2018-09-09T02:08:24.409Z,15.00
2018-09-09T02:10:26.436Z,15.00
2018-09-09T02:12:28.582Z,15.00
2018-09-09T02:14:30.721Z,15.00
2018-09-09T02:16:32.821Z,15.00
2018-09-09T02:18:34.982Z,14.90
2018-09-09T02:20:37.123Z,14.90
2018-09-09T02:22:39.261Z,14.90
2018-09-09T02:24:41.338Z,14.90
2018-09-09T02:26:43.377Z,14.80
2018-09-09T02:28:45.441Z,14.80
2018-09-09T02:30:47.465Z,14.80
2018-09-09T02:32:49.536Z,14.80
2018-09-09T02:34:51.594Z,14.80
2018-09-09T02:36:53.641Z,14.80
2018-09-09T02:38:55.745Z,14.70
2018-09-09T02:40:57.805Z,14.70
2018-09-09T02:42:59.877Z,14.70
2018-09-09T02:45:01.961Z,14.70
2018-09-09T02:47:03.993Z,14.60
2018-09-09T02:49:06.078Z,14.60
2018-09-09T02:51:08.125Z,14.50
2018-09-09T02:53:10.184Z,14.50
2018-09-09T02:55:12.209Z,14.40
2018-09-09T02:57:14.270Z,14.40
2018-09-09T02:59:16.322Z,14.30
2018-09-09T03:01:18.373Z,14.30
2018-09-09T03:03:20.432Z,14.20
2018-09-09T03:05:22.536Z,14.30
2018-09-09T03:07:24.614Z,14.30
2018-09-09T03:09:26.700Z,14.30
2018-09-09T03:11:28.761Z,14.30
2018-09-09T03:13:30.799Z,14.30
2018-09-09T03:15:32.881Z,14.30
2018-09-09T03:17:34.922Z,14.30
2018-09-09T03:19:37.012Z,14.20
2018-09-09T03:21:39.107Z,14.10
2018-09-09T03:23:43.761Z,14.00
2018-09-09T03:25:46.134Z,13.90
2018-09-09T03:27:48.182Z,14.00
2018-09-09T03:29:50.290Z,14.00
2018-09-09T03:31:52.374Z,14.10
2018-09-09T03:33:54.473Z,14.10
2018-09-09T03:35:56.618Z,14.10
2018-09-09T03:37:58.673Z,14.00
2018-09-09T03:40:00.742Z,13.90
2018-09-09T03:42:02.782Z,13.90
2018-09-09T03:44:04.849Z,13.90
2018-09-09T03:46:06.908Z,13.80
2018-09-09T03:48:09.012Z,13.80
2018-09-09T03:50:11.061Z,13.80
2018-09-09T03:52:13.089Z,13.70
2018-09-09T03:54:15.141Z,13.70
2018-09-09T03:56:17.177Z,13.60
2018-09-09T03:58:19.272Z,13.50
2018-09-09T04:00:21.325Z,13.50
2018-09-09T04:02:23.362Z,13.50
2018-09-09T04:04:25.412Z,13.40
2018-09-09T04:06:27.477Z,13.30
2018-09-09T04:08:29.529Z,13.20
2018-09-09T04:10:31.605Z,13.10
2018-09-09T04:12:33.657Z,13.10
2018-09-09T04:14:35.708Z,13.10
2018-09-09T04:16:37.745Z,13.00
2018-09-09T04:18:40.701Z,13.00
2018-09-09T04:20:42.737Z,13.00
2018-09-09T04:22:44.794Z,12.90
2018-09-09T04:24:46.840Z,12.90
2018-09-09T04:26:49.019Z,12.90
2018-09-09T04:28:51.031Z,12.90
2018-09-09T04:30:53.181Z,12.90
2018-09-09T04:32:55.221Z,12.90
2018-09-09T04:34:57.274Z,12.80
2018-09-09T04:36:59.342Z,12.90
2018-09-09T04:39:01.393Z,12.90
2018-09-09T04:41:03.457Z,12.90
2018-09-09T04:43:05.513Z,12.90
2018-09-09T04:45:07.575Z,12.80
2018-09-09T04:47:09.614Z,12.90
2018-09-09T04:49:11.690Z,12.90
2018-09-09T04:51:13.746Z,12.90
2018-09-09T04:53:15.798Z,12.90
2018-09-09T04:55:17.851Z,12.90
2018-09-09T04:57:19.905Z,12.80
2018-09-09T05:01:52.670Z,12.70
2018-09-09T05:03:54.725Z,12.70
2018-09-09T05:05:56.890Z,12.70
2018-09-09T05:07:59.011Z,12.70
2018-09-09T05:10:01.205Z,12.70
2018-09-09T05:12:03.517Z,12.80
2018-09-09T05:14:05.949Z,12.80
2018-09-09T05:16:08.495Z,12.90
2018-09-09T05:18:11.005Z,12.90
2018-09-09T05:20:13.529Z,13.00
2018-09-09T05:22:16.206Z,13.00
2018-09-09T05:24:18.941Z,13.00
2018-09-09T05:26:21.427Z,13.10
2018-09-09T05:28:23.665Z,13.10
2018-09-09T05:30:26.078Z,13.10
2018-09-09T05:32:28.854Z,13.20
2018-09-09T05:34:31.694Z,13.30
2018-09-09T05:36:34.311Z,13.30
2018-09-09T05:38:37.037Z,13.40
2018-09-09T05:40:39.710Z,13.50
2018-09-09T05:42:42.160Z,13.50
2018-09-09T05:44:44.768Z,13.60
2018-09-09T05:46:47.171Z,13.60
2018-09-09T05:48:49.765Z,13.60
2018-09-09T05:50:52.313Z,13.60
2018-09-09T05:52:54.692Z,13.60
2018-09-09T05:54:56.926Z,13.60
2018-09-09T05:56:59.146Z,13.60
2018-09-09T05:59:01.532Z,13.60
2018-09-09T06:01:04.283Z,13.60
2018-09-09T06:03:06.795Z,13.50
2018-09-09T06:05:09.103Z,13.50
2018-09-09T06:07:11.541Z,13.60
2018-09-09T06:09:13.781Z,13.60
2018-09-09T06:11:15.986Z,13.70
2018-09-09T06:13:18.262Z,13.70
2018-09-09T06:15:20.623Z,13.80
2018-09-09T06:17:22.966Z,13.90
2018-09-09T06:19:25.374Z,13.90
2018-09-09T06:21:27.800Z,14.00
2018-09-09T06:23:30.224Z,14.10
2018-09-09T06:25:32.480Z,14.20
2018-09-09T06:27:34.762Z,14.30
2018-09-09T06:29:37.330Z,14.50
2018-09-09T06:31:39.668Z,14.70
2018-09-09T06:33:42.220Z,14.90
2018-09-09T06:35:44.624Z,15.20
2018-09-09T06:37:46.998Z,15.50
2018-09-09T06:39:49.220Z,15.70
2018-09-09T06:41:51.432Z,16.00
2018-09-09T06:43:53.531Z,16.00
2018-09-09T06:45:55.685Z,15.90
2018-09-09T06:47:57.810Z,16.00
2018-09-09T06:49:59.934Z,16.10
2018-09-09T06:52:02.052Z,16.10
2018-09-09T06:54:04.315Z,16.10
2018-09-09T06:56:06.438Z,16.10
2018-09-09T06:58:08.831Z,16.10
2018-09-09T07:00:11.236Z,16.20
2018-09-09T07:02:13.803Z,16.20
2018-09-09T07:04:16.061Z,16.30
2018-09-09T07:06:18.237Z,16.40
2018-09-09T07:08:20.366Z,16.40
2018-09-09T07:10:22.489Z,16.40
2018-09-09T07:12:24.811Z,16.40
2018-09-09T07:14:26.938Z,16.40
2018-09-09T07:16:29.679Z,16.40
2018-09-09T07:18:31.841Z,16.50
2018-09-09T07:20:34.226Z,17.20
2018-09-09T07:22:36.447Z,17.80
2018-09-09T08:39:35.632Z,18.60
2018-09-09T08:41:37.673Z,24.20
2018-09-09T08:43:40.423Z,24.20
2018-09-09T08:45:43.670Z,24.40
2018-09-09T08:47:46.470Z,24.50
2018-09-09T08:49:48.518Z,24.60
2018-09-09T08:51:51.158Z,24.70
2018-09-09T08:53:53.100Z,24.80
2018-09-09T08:55:56.796Z,24.80
2018-09-09T08:57:58.895Z,24.70
2018-09-09T09:00:01.727Z,24.80
2018-09-09T09:02:07.234Z,24.60
2018-09-09T09:04:09.326Z,24.10
2018-09-09T09:06:11.426Z,24.10
2018-09-09T09:08:13.479Z,23.70
2018-09-09T09:10:15.552Z,23.80
2018-09-09T09:12:18.475Z,24.00
2018-09-09T09:14:21.974Z,24.50
2018-09-09T09:16:24.085Z,24.10
2018-09-09T09:18:26.260Z,24.40
2018-09-09T09:20:29.613Z,25.00
2018-09-09T09:22:31.832Z,25.10
2018-09-09T09:24:40.315Z,24.80
2018-09-09T09:26:45.447Z,24.50
2018-09-09T09:28:47.906Z,24.00
2018-09-09T09:30:50.723Z,24.20
2018-09-09T09:32:52.725Z,24.30
2018-09-09T09:34:55.501Z,24.30
2018-09-09T09:36:57.561Z,24.20
2018-09-09T09:39:00.259Z,24.40
2018-09-09T09:41:02.277Z,25.00
2018-09-09T09:43:05.771Z,25.40
2018-09-09T09:45:07.870Z,26.10
2018-09-09T09:47:10.982Z,25.60
2018-09-09T09:49:16.356Z,26.20
2018-09-09T09:51:19.481Z,26.50
2018-09-09T09:53:22.759Z,26.80
2018-09-09T09:55:25.268Z,27.00
2018-09-09T09:57:28.722Z,27.30
2018-09-09T09:59:32.329Z,27.50
2018-09-09T10:01:38.506Z,27.40
2018-09-09T10:03:40.902Z,27.50
2018-09-09T10:05:43.275Z,27.40
2018-09-09T10:07:46.950Z,27.00
2018-09-09T10:09:50.807Z,27.20
2018-09-09T10:11:53.673Z,27.40
2018-09-09T10:13:57.194Z,27.30
2018-09-09T10:16:00.637Z,27.60
2018-09-09T10:18:04.875Z,27.50
2018-09-09T10:20:09.454Z,28.00
2018-09-09T10:22:11.787Z,28.30
2018-09-09T10:24:14.442Z,28.30
2018-09-09T10:26:18.756Z,28.30
2018-09-09T10:28:20.905Z,28.50
2018-09-09T10:30:24.282Z,28.20
2018-09-09T10:32:28.581Z,28.30
2018-09-09T10:34:32.040Z,28.70
2018-09-09T10:36:35.134Z,28.60
2018-09-09T10:38:37.749Z,28.80
2018-09-09T10:40:39.985Z,28.40
2018-09-09T10:42:42.062Z,29.00
2018-09-09T10:44:44.129Z,29.40
2018-09-09T10:46:46.374Z,29.60
2018-09-09T10:48:48.490Z,29.90
2018-09-09T10:50:50.559Z,29.70
2018-09-09T10:52:52.625Z,29.60
2018-09-09T10:54:54.673Z,29.20
2018-09-09T10:56:56.790Z,28.80
2018-09-09T10:58:58.846Z,29.30
2018-09-09T11:01:00.937Z,28.90
2018-09-09T11:03:02.982Z,29.30
2018-09-09T11:05:05.150Z,29.80
2018-09-09T11:07:08.866Z,30.30
2018-09-09T11:09:10.954Z,30.40
2018-09-09T11:11:12.999Z,30.40
2018-09-09T11:13:15.099Z,30.30
2018-09-09T11:15:17.197Z,29.80
2018-09-09T11:17:19.264Z,27.60
2018-09-09T11:19:21.414Z,26.80
2018-09-09T11:21:23.490Z,27.00
2018-09-09T11:23:25.554Z,27.10
2018-09-09T11:25:27.634Z,27.60
2018-09-09T11:27:29.709Z,28.60
2018-09-09T11:29:31.830Z,29.00
2018-09-09T11:31:33.903Z,29.20
2018-09-09T11:33:36.050Z,28.80
2018-09-09T11:35:38.138Z,29.20
2018-09-09T11:37:40.202Z,29.30
2018-09-09T11:39:42.293Z,29.30
2018-09-09T11:41:44.359Z,29.50
2018-09-09T11:43:46.473Z,29.50
2018-09-09T11:45:48.554Z,29.90
2018-09-09T11:47:50.641Z,29.50
2018-09-09T11:49:52.709Z,29.40
2018-09-09T11:51:54.801Z,29.60
2018-09-09T11:53:56.870Z,29.70
2018-09-09T11:55:59.012Z,29.80
2018-09-09T11:58:01.097Z,29.40
2018-09-09T12:00:03.457Z,28.80
2018-09-09T12:02:05.653Z,28.40
2018-09-09T12:04:07.734Z,29.40
2018-09-09T12:06:09.860Z,29.60
2018-09-09T12:08:12.018Z,29.20
2018-09-09T12:10:14.158Z,28.60
2018-09-09T12:12:16.622Z,27.70
2018-09-09T12:14:18.738Z,27.50
2018-09-09T12:16:20.914Z,27.80
2018-09-09T12:18:23.063Z,27.90
2018-09-09T12:20:25.152Z,27.50
2018-09-09T12:22:27.221Z,28.20
2018-09-09T12:24:29.355Z,28.60
2018-09-09T12:26:31.486Z,28.00
2018-09-09T12:28:33.668Z,26.70
2018-09-09T12:30:35.794Z,28.50
2018-09-09T12:32:37.960Z,28.60
2018-09-09T12:34:39.971Z,29.20
2018-09-09T12:36:42.129Z,28.70
2018-09-09T12:38:44.213Z,28.40
2018-09-09T12:40:46.298Z,29.50
2018-09-09T12:42:55.793Z,29.70
2018-09-09T12:45:03.640Z,28.90
2018-09-09T12:47:11.515Z,29.30
2018-09-09T12:49:13.557Z,29.40
2018-09-09T12:51:15.727Z,29.40
2018-09-09T12:53:17.969Z,30.10
2018-09-09T12:55:20.050Z,30.10
2018-09-09T12:57:22.199Z,29.80
2018-09-09T12:59:24.315Z,29.80
2018-09-09T13:01:26.858Z,30.50
2018-09-09T13:03:28.980Z,30.50
2018-09-09T13:05:31.091Z,30.90
2018-09-09T13:07:33.159Z,30.40
2018-09-09T13:09:35.246Z,30.10
2018-09-09T13:11:37.339Z,29.70
2018-09-09T13:13:39.449Z,28.90
2018-09-09T13:15:41.645Z,28.60
2018-09-09T13:17:43.762Z,28.20
2018-09-09T13:19:46.494Z,27.90
2018-09-09T13:21:48.775Z,27.80
2018-09-09T13:23:50.865Z,27.70
2018-09-09T13:25:52.966Z,27.60
2018-09-09T13:27:55.136Z,27.50
2018-09-09T13:29:57.275Z,28.50
2018-09-09T13:31:59.402Z,28.70
2018-09-09T13:34:01.466Z,28.20
2018-09-09T13:36:03.692Z,29.00
2018-09-09T13:38:05.756Z,28.40
2018-09-09T13:40:07.842Z,28.10
2018-09-09T13:42:09.946Z,27.50
2018-09-09T13:44:12.136Z,27.30
2018-09-09T13:46:14.287Z,26.60
2018-09-09T13:48:17.648Z,26.30
2018-09-09T13:50:20.143Z,26.20
2018-09-09T13:52:22.992Z,25.80
2018-09-09T13:54:26.583Z,25.80
2018-09-09T13:56:28.662Z,25.40
2018-09-09T13:58:32.065Z,25.40
2018-09-09T14:00:34.249Z,25.30
2018-09-09T14:02:36.438Z,25.30
2018-09-09T14:04:42.509Z,25.20
2018-09-09T14:06:44.581Z,24.80
2018-09-09T14:08:48.850Z,24.90
2018-09-09T14:10:50.922Z,24.80
2018-09-09T14:12:53.916Z,24.70
2018-09-09T14:14:58.272Z,24.60
2018-09-09T14:17:00.451Z,25.10
2018-09-09T14:19:02.469Z,25.40
2018-09-09T14:21:04.598Z,25.40
2018-09-09T14:23:06.709Z,25.60
2018-09-09T14:25:08.818Z,26.10
2018-09-09T14:27:11.028Z,26.00
2018-09-09T14:29:13.159Z,25.90
2018-09-09T14:31:15.300Z,25.80
2018-09-09T14:33:17.490Z,25.70
2018-09-09T14:35:20.662Z,25.60
2018-09-09T14:37:23.474Z,25.60
